sensor_id;sensor_type;location;lat;lon;timestamp;temperature;humidity
44607;DHT22;30315;46.072;14.474;2023-06-14T00:00:16;21.90;69.00
44607;DHT22;30315;46.072;14.474;2023-06-14T00:02:43;21.90;69.50
44607;DHT22;30315;46.072;14.474;2023-06-14T00:05:10;21.90;68.90
44607;DHT22;30315;46.072;14.474;2023-06-14T00:07:40;21.80;68.80
44607;DHT22;30315;46.072;14.474;2023-06-14T00:10:11;21.80;68.80
44607;DHT22;30315;46.072;14.474;2023-06-14T00:12:39;21.40;68.50
44607;DHT22;30315;46.072;14.474;2023-06-14T00:15:07;21.70;68.70
44607;DHT22;30315;46.072;14.474;2023-06-14T00:17:34;21.70;69.00
44607;DHT22;30315;46.072;14.474;2023-06-14T00:20:05;21.70;69.50
44607;DHT22;30315;46.072;14.474;2023-06-14T00:22:34;21.70;69.60
44607;DHT22;30315;46.072;14.474;2023-06-14T00:25:03;21.70;69.60
44607;DHT22;30315;46.072;14.474;2023-06-14T00:27:49;21.70;69.70
44607;DHT22;30315;46.072;14.474;2023-06-14T00:30:17;21.60;69.80
44607;DHT22;30315;46.072;14.474;2023-06-14T00:32:45;21.60;69.70
44607;DHT22;30315;46.072;14.474;2023-06-14T00:35:13;21.60;69.80
44607;DHT22;30315;46.072;14.474;2023-06-14T00:37:40;21.50;69.60
44607;DHT22;30315;46.072;14.474;2023-06-14T00:40:08;21.60;69.50
44607;DHT22;30315;46.072;14.474;2023-06-14T00:42:35;21.50;69.60
44607;DHT22;30315;46.072;14.474;2023-06-14T00:45:02;21.50;69.40
44607;DHT22;30315;46.072;14.474;2023-06-14T00:47:29;21.50;69.50
44607;DHT22;30315;46.072;14.474;2023-06-14T00:49:56;21.50;69.70
44607;DHT22;30315;46.072;14.474;2023-06-14T00:52:24;21.40;69.70
44607;DHT22;30315;46.072;14.474;2023-06-14T00:54:51;21.40;70.00
44607;DHT22;30315;46.072;14.474;2023-06-14T00:57:18;21.40;70.00
44607;DHT22;30315;46.072;14.474;2023-06-14T00:59:47;21.40;70.10
44607;DHT22;30315;46.072;14.474;2023-06-14T01:02:16;21.40;70.30
44607;DHT22;30315;46.072;14.474;2023-06-14T01:04:48;21.30;70.40
44607;DHT22;30315;46.072;14.474;2023-06-14T01:07:33;21.40;70.90
44607;DHT22;30315;46.072;14.474;2023-06-14T01:13:31;21.30;70.80
44607;DHT22;30315;46.072;14.474;2023-06-14T01:15:55;21.30;70.80
44607;DHT22;30315;46.072;14.474;2023-06-14T01:18:23;21.30;71.00
44607;DHT22;30315;46.072;14.474;2023-06-14T01:20:51;21.30;71.00
44607;DHT22;30315;46.072;14.474;2023-06-14T01:23:24;21.20;70.90
44607;DHT22;30315;46.072;14.474;2023-06-14T01:25:52;21.30;71.20
44607;DHT22;30315;46.072;14.474;2023-06-14T01:28:21;21.30;71.00
44607;DHT22;30315;46.072;14.474;2023-06-14T01:30:50;21.20;71.00
44607;DHT22;30315;46.072;14.474;2023-06-14T01:33:22;21.10;71.70
44607;DHT22;30315;46.072;14.474;2023-06-14T01:35:51;21.10;71.30
44607;DHT22;30315;46.072;14.474;2023-06-14T01:38:24;21.10;71.30
44607;DHT22;30315;46.072;14.474;2023-06-14T01:40:54;21.10;71.50
44607;DHT22;30315;46.072;14.474;2023-06-14T01:43:25;21.10;71.60
44607;DHT22;30315;46.072;14.474;2023-06-14T01:45:54;21.10;71.90
44607;DHT22;30315;46.072;14.474;2023-06-14T01:48:23;21.10;71.90
44607;DHT22;30315;46.072;14.474;2023-06-14T01:50:50;21.10;71.80
44607;DHT22;30315;46.072;14.474;2023-06-14T01:53:19;21.10;71.90
44607;DHT22;30315;46.072;14.474;2023-06-14T01:55:47;21.10;71.80
44607;DHT22;30315;46.072;14.474;2023-06-14T01:58:15;21.10;72.20
44607;DHT22;30315;46.072;14.474;2023-06-14T02:00:43;21.10;72.10
44607;DHT22;30315;46.072;14.474;2023-06-14T02:03:11;21.10;72.30
44607;DHT22;30315;46.072;14.474;2023-06-14T02:05:38;21.10;72.20
44607;DHT22;30315;46.072;14.474;2023-06-14T02:08:07;21.00;72.20
44607;DHT22;30315;46.072;14.474;2023-06-14T02:10:34;21.00;72.40
44607;DHT22;30315;46.072;14.474;2023-06-14T02:13:02;21.00;72.70
44607;DHT22;30315;46.072;14.474;2023-06-14T02:15:30;21.00;72.60
44607;DHT22;30315;46.072;14.474;2023-06-14T02:18:04;21.00;72.90
44607;DHT22;30315;46.072;14.474;2023-06-14T02:23:35;20.90;72.70
44607;DHT22;30315;46.072;14.474;2023-06-14T02:26:02;20.90;73.40
44607;DHT22;30315;46.072;14.474;2023-06-14T02:28:30;20.80;72.20
44607;DHT22;30315;46.072;14.474;2023-06-14T02:30:57;20.80;72.50
44607;DHT22;30315;46.072;14.474;2023-06-14T02:33:24;20.80;72.80
44607;DHT22;30315;46.072;14.474;2023-06-14T02:35:52;20.70;72.90
44607;DHT22;30315;46.072;14.474;2023-06-14T02:38:19;20.70;72.60
44607;DHT22;30315;46.072;14.474;2023-06-14T02:40:47;20.70;72.80
44607;DHT22;30315;46.072;14.474;2023-06-14T02:43:14;20.70;72.70
44607;DHT22;30315;46.072;14.474;2023-06-14T02:45:44;20.60;72.40
44607;DHT22;30315;46.072;14.474;2023-06-14T02:48:11;20.60;72.40
44607;DHT22;30315;46.072;14.474;2023-06-14T02:50:40;20.60;71.90
44607;DHT22;30315;46.072;14.474;2023-06-14T02:53:07;20.50;71.50
44607;DHT22;30315;46.072;14.474;2023-06-14T02:55:35;20.40;71.60
44607;DHT22;30315;46.072;14.474;2023-06-14T02:58:06;20.40;71.80
44607;DHT22;30315;46.072;14.474;2023-06-14T03:00:34;20.40;72.40
44607;DHT22;30315;46.072;14.474;2023-06-14T03:03:02;20.30;72.30
44607;DHT22;30315;46.072;14.474;2023-06-14T03:05:29;20.30;72.00
44607;DHT22;30315;46.072;14.474;2023-06-14T03:07:57;20.20;72.10
44607;DHT22;30315;46.072;14.474;2023-06-14T03:10:24;20.30;72.50
44607;DHT22;30315;46.072;14.474;2023-06-14T03:12:52;20.30;72.70
44607;DHT22;30315;46.072;14.474;2023-06-14T03:15:21;20.20;73.30
44607;DHT22;30315;46.072;14.474;2023-06-14T03:17:51;20.20;72.60
44607;DHT22;30315;46.072;14.474;2023-06-14T03:20:20;20.20;72.30
44607;DHT22;30315;46.072;14.474;2023-06-14T03:22:47;20.20;72.10
44607;DHT22;30315;46.072;14.474;2023-06-14T03:25:15;20.10;72.40
44607;DHT22;30315;46.072;14.474;2023-06-14T03:27:44;20.10;72.40
44607;DHT22;30315;46.072;14.474;2023-06-14T03:30:12;20.00;72.50
44607;DHT22;30315;46.072;14.474;2023-06-14T03:32:41;20.00;72.60
44607;DHT22;30315;46.072;14.474;2023-06-14T03:35:08;20.00;72.50
44607;DHT22;30315;46.072;14.474;2023-06-14T03:37:37;19.90;72.70
44607;DHT22;30315;46.072;14.474;2023-06-14T03:40:04;20.00;73.10
44607;DHT22;30315;46.072;14.474;2023-06-14T03:42:38;20.00;73.50
44607;DHT22;30315;46.072;14.474;2023-06-14T03:45:06;19.90;73.50
44607;DHT22;30315;46.072;14.474;2023-06-14T03:47:34;20.00;73.70
44607;DHT22;30315;46.072;14.474;2023-06-14T03:50:03;20.00;73.60
44607;DHT22;30315;46.072;14.474;2023-06-14T03:52:30;19.90;73.50
44607;DHT22;30315;46.072;14.474;2023-06-14T03:54:58;19.90;73.70
44607;DHT22;30315;46.072;14.474;2023-06-14T03:57:31;19.90;73.80
44607;DHT22;30315;46.072;14.474;2023-06-14T03:59:58;19.90;73.80
44607;DHT22;30315;46.072;14.474;2023-06-14T04:02:26;19.90;73.80
44607;DHT22;30315;46.072;14.474;2023-06-14T04:04:55;19.90;74.40
44607;DHT22;30315;46.072;14.474;2023-06-14T04:07:23;19.70;73.60
44607;DHT22;30315;46.072;14.474;2023-06-14T04:09:50;19.80;73.60
44607;DHT22;30315;46.072;14.474;2023-06-14T04:12:17;19.80;73.90
44607;DHT22;30315;46.072;14.474;2023-06-14T04:14:44;19.80;74.20
44607;DHT22;30315;46.072;14.474;2023-06-14T04:17:11;19.80;74.60
44607;DHT22;30315;46.072;14.474;2023-06-14T04:19:42;19.80;74.50
44607;DHT22;30315;46.072;14.474;2023-06-14T04:22:09;19.80;74.20
44607;DHT22;30315;46.072;14.474;2023-06-14T04:24:38;19.80;74.00
44607;DHT22;30315;46.072;14.474;2023-06-14T04:27:05;19.80;74.20
44607;DHT22;30315;46.072;14.474;2023-06-14T04:29:35;19.80;74.40
44607;DHT22;30315;46.072;14.474;2023-06-14T04:32:06;19.80;74.70
44607;DHT22;30315;46.072;14.474;2023-06-14T04:34:38;19.80;74.70
44607;DHT22;30315;46.072;14.474;2023-06-14T04:37:07;19.80;74.80
44607;DHT22;30315;46.072;14.474;2023-06-14T04:39:37;19.80;74.80
44607;DHT22;30315;46.072;14.474;2023-06-14T04:42:05;19.70;74.50
44607;DHT22;30315;46.072;14.474;2023-06-14T04:44:34;19.80;74.80
44607;DHT22;30315;46.072;14.474;2023-06-14T04:47:04;19.70;74.70
44607;DHT22;30315;46.072;14.474;2023-06-14T04:49:31;19.70;74.70
44607;DHT22;30315;46.072;14.474;2023-06-14T04:51:59;19.70;75.00
44607;DHT22;30315;46.072;14.474;2023-06-14T04:54:34;19.70;75.00
44607;DHT22;30315;46.072;14.474;2023-06-14T04:57:10;19.80;74.80
44607;DHT22;30315;46.072;14.474;2023-06-14T04:59:42;19.80;74.40
44607;DHT22;30315;46.072;14.474;2023-06-14T05:02:11;19.80;74.50
44607;DHT22;30315;46.072;14.474;2023-06-14T05:04:39;19.90;74.90
44607;DHT22;30315;46.072;14.474;2023-06-14T05:07:08;19.90;75.10
44607;DHT22;30315;46.072;14.474;2023-06-14T05:09:36;19.90;75.10
44607;DHT22;30315;46.072;14.474;2023-06-14T05:12:03;19.90;75.40
44607;DHT22;30315;46.072;14.474;2023-06-14T05:14:30;19.90;75.10
44607;DHT22;30315;46.072;14.474;2023-06-14T05:16:57;20.00;75.10
44607;DHT22;30315;46.072;14.474;2023-06-14T05:19:24;20.00;75.00
44607;DHT22;30315;46.072;14.474;2023-06-14T05:21:51;20.10;75.30
44607;DHT22;30315;46.072;14.474;2023-06-14T05:24:19;20.20;75.50
44607;DHT22;30315;46.072;14.474;2023-06-14T05:26:46;20.20;75.40
44607;DHT22;30315;46.072;14.474;2023-06-14T05:29:13;20.20;75.20
44607;DHT22;30315;46.072;14.474;2023-06-14T05:31:40;20.20;75.30
44607;DHT22;30315;46.072;14.474;2023-06-14T05:34:07;20.20;75.20
44607;DHT22;30315;46.072;14.474;2023-06-14T05:36:34;20.30;75.00
44607;DHT22;30315;46.072;14.474;2023-06-14T05:39:03;20.30;74.70
44607;DHT22;30315;46.072;14.474;2023-06-14T05:41:31;20.30;74.90
44607;DHT22;30315;46.072;14.474;2023-06-14T05:43:58;20.30;75.00
44607;DHT22;30315;46.072;14.474;2023-06-14T05:46:27;20.40;75.10
44607;DHT22;30315;46.072;14.474;2023-06-14T05:48:55;20.30;74.90
44607;DHT22;30315;46.072;14.474;2023-06-14T05:51:23;20.40;75.00
44607;DHT22;30315;46.072;14.474;2023-06-14T05:53:52;20.40;75.30
44607;DHT22;30315;46.072;14.474;2023-06-14T05:56:19;20.40;75.60
44607;DHT22;30315;46.072;14.474;2023-06-14T05:58:46;20.40;75.50
44607;DHT22;30315;46.072;14.474;2023-06-14T06:01:14;20.50;75.70
44607;DHT22;30315;46.072;14.474;2023-06-14T06:03:41;20.60;75.80
44607;DHT22;30315;46.072;14.474;2023-06-14T06:06:13;20.60;75.40
44607;DHT22;30315;46.072;14.474;2023-06-14T06:08:40;20.70;74.70
44607;DHT22;30315;46.072;14.474;2023-06-14T06:11:07;20.80;74.20
44607;DHT22;30315;46.072;14.474;2023-06-14T06:13:35;20.80;73.50
44607;DHT22;30315;46.072;14.474;2023-06-14T06:16:03;20.90;73.80
44607;DHT22;30315;46.072;14.474;2023-06-14T06:18:30;21.00;73.40
44607;DHT22;30315;46.072;14.474;2023-06-14T06:20:57;21.00;72.80
44607;DHT22;30315;46.072;14.474;2023-06-14T06:23:24;21.10;72.40
44607;DHT22;30315;46.072;14.474;2023-06-14T06:25:51;21.10;72.20
44607;DHT22;30315;46.072;14.474;2023-06-14T06:28:18;21.20;71.90
44607;DHT22;30315;46.072;14.474;2023-06-14T06:30:45;21.30;71.30
44607;DHT22;30315;46.072;14.474;2023-06-14T06:33:13;21.30;70.90
44607;DHT22;30315;46.072;14.474;2023-06-14T06:35:40;21.30;70.70
44607;DHT22;30315;46.072;14.474;2023-06-14T06:38:07;21.40;70.90
44607;DHT22;30315;46.072;14.474;2023-06-14T06:40:36;21.40;70.70
44607;DHT22;30315;46.072;14.474;2023-06-14T06:43:03;21.40;70.70
44607;DHT22;30315;46.072;14.474;2023-06-14T06:45:41;21.40;70.60
44607;DHT22;30315;46.072;14.474;2023-06-14T06:48:08;21.40;70.60
44607;DHT22;30315;46.072;14.474;2023-06-14T06:50:37;21.40;70.50
44607;DHT22;30315;46.072;14.474;2023-06-14T06:53:04;21.40;69.90
44607;DHT22;30315;46.072;14.474;2023-06-14T06:55:33;21.40;69.90
44607;DHT22;30315;46.072;14.474;2023-06-14T06:58:00;21.40;69.40
44607;DHT22;30315;46.072;14.474;2023-06-14T07:00:27;21.40;68.90
44607;DHT22;30315;46.072;14.474;2023-06-14T07:02:54;21.50;68.50
44607;DHT22;30315;46.072;14.474;2023-06-14T07:05:22;21.50;68.30
44607;DHT22;30315;46.072;14.474;2023-06-14T07:07:49;21.60;68.40
44607;DHT22;30315;46.072;14.474;2023-06-14T07:10:16;21.70;68.10
44607;DHT22;30315;46.072;14.474;2023-06-14T07:12:43;21.70;68.10
44607;DHT22;30315;46.072;14.474;2023-06-14T07:15:10;21.70;67.20
44607;DHT22;30315;46.072;14.474;2023-06-14T07:17:37;21.80;66.90
44607;DHT22;30315;46.072;14.474;2023-06-14T07:20:05;21.80;66.40
44607;DHT22;30315;46.072;14.474;2023-06-14T07:22:39;21.90;66.50
44607;DHT22;30315;46.072;14.474;2023-06-14T07:25:09;21.90;66.30
44607;DHT22;30315;46.072;14.474;2023-06-14T07:27:36;22.00;66.50
44607;DHT22;30315;46.072;14.474;2023-06-14T07:30:03;22.30;66.70
44607;DHT22;30315;46.072;14.474;2023-06-14T07:32:31;22.30;66.70
44607;DHT22;30315;46.072;14.474;2023-06-14T07:34:58;22.40;66.80
44607;DHT22;30315;46.072;14.474;2023-06-14T07:37:25;22.50;65.20
44607;DHT22;30315;46.072;14.474;2023-06-14T07:39:52;22.50;64.60
44607;DHT22;30315;46.072;14.474;2023-06-14T07:42:19;22.60;63.90
44607;DHT22;30315;46.072;14.474;2023-06-14T07:44:46;22.60;63.50
44607;DHT22;30315;46.072;14.474;2023-06-14T07:47:12;22.70;62.80
44607;DHT22;30315;46.072;14.474;2023-06-14T07:49:39;22.70;62.10
44607;DHT22;30315;46.072;14.474;2023-06-14T07:52:06;22.70;61.90
44607;DHT22;30315;46.072;14.474;2023-06-14T07:54:33;22.70;62.00
44607;DHT22;30315;46.072;14.474;2023-06-14T07:57:00;22.80;62.30
44607;DHT22;30315;46.072;14.474;2023-06-14T07:59:27;22.80;62.50
44607;DHT22;30315;46.072;14.474;2023-06-14T08:01:54;22.90;62.90
44607;DHT22;30315;46.072;14.474;2023-06-14T08:04:21;22.90;62.90
44607;DHT22;30315;46.072;14.474;2023-06-14T08:06:48;22.90;62.70
44607;DHT22;30315;46.072;14.474;2023-06-14T08:09:16;23.00;62.70
44607;DHT22;30315;46.072;14.474;2023-06-14T08:11:43;23.00;62.80
44607;DHT22;30315;46.072;14.474;2023-06-14T08:14:10;23.10;62.90
44607;DHT22;30315;46.072;14.474;2023-06-14T08:16:37;23.20;62.20
44607;DHT22;30315;46.072;14.474;2023-06-14T08:19:04;23.20;62.10
44607;DHT22;30315;46.072;14.474;2023-06-14T08:21:32;23.30;62.60
44607;DHT22;30315;46.072;14.474;2023-06-14T08:24:00;23.40;62.40
44607;DHT22;30315;46.072;14.474;2023-06-14T08:26:27;23.40;62.30
44607;DHT22;30315;46.072;14.474;2023-06-14T08:28:56;23.50;61.60
44607;DHT22;30315;46.072;14.474;2023-06-14T08:31:23;23.60;61.30
44607;DHT22;30315;46.072;14.474;2023-06-14T08:33:52;23.60;60.40
44607;DHT22;30315;46.072;14.474;2023-06-14T08:36:19;23.60;60.20
44607;DHT22;30315;46.072;14.474;2023-06-14T08:38:46;23.70;60.80
44607;DHT22;30315;46.072;14.474;2023-06-14T08:41:22;23.70;61.20
44607;DHT22;30315;46.072;14.474;2023-06-14T08:43:53;23.80;60.90
44607;DHT22;30315;46.072;14.474;2023-06-14T08:46:20;23.90;61.10
44607;DHT22;30315;46.072;14.474;2023-06-14T08:48:49;24.00;61.70
44607;DHT22;30315;46.072;14.474;2023-06-14T08:51:22;24.00;61.80
44607;DHT22;30315;46.072;14.474;2023-06-14T08:53:53;24.00;60.20
44607;DHT22;30315;46.072;14.474;2023-06-14T08:56:21;24.00;59.60
44607;DHT22;30315;46.072;14.474;2023-06-14T08:58:49;24.00;59.80
44607;DHT22;30315;46.072;14.474;2023-06-14T09:01:16;24.10;59.60
44607;DHT22;30315;46.072;14.474;2023-06-14T09:03:43;24.00;59.90
44607;DHT22;30315;46.072;14.474;2023-06-14T09:06:11;24.10;59.60
44607;DHT22;30315;46.072;14.474;2023-06-14T09:08:43;24.00;59.00
44607;DHT22;30315;46.072;14.474;2023-06-14T09:11:15;24.00;59.40
44607;DHT22;30315;46.072;14.474;2023-06-14T09:13:42;24.00;59.50
44607;DHT22;30315;46.072;14.474;2023-06-14T09:16:10;24.00;59.70
44607;DHT22;30315;46.072;14.474;2023-06-14T09:18:44;24.00;59.70
44607;DHT22;30315;46.072;14.474;2023-06-14T09:21:13;24.00;60.00
44607;DHT22;30315;46.072;14.474;2023-06-14T09:23:42;23.90;60.30
44607;DHT22;30315;46.072;14.474;2023-06-14T09:26:14;24.00;59.90
44607;DHT22;30315;46.072;14.474;2023-06-14T09:28:46;23.90;59.70
44607;DHT22;30315;46.072;14.474;2023-06-14T09:31:15;23.90;59.60
44607;DHT22;30315;46.072;14.474;2023-06-14T09:33:43;23.90;59.80
44607;DHT22;30315;46.072;14.474;2023-06-14T09:36:23;23.90;60.00
44607;DHT22;30315;46.072;14.474;2023-06-14T09:38:57;23.90;60.40
44607;DHT22;30315;46.072;14.474;2023-06-14T09:41:35;23.80;60.20
44607;DHT22;30315;46.072;14.474;2023-06-14T09:44:04;23.80;60.00
44607;DHT22;30315;46.072;14.474;2023-06-14T09:46:35;23.80;60.10
44607;DHT22;30315;46.072;14.474;2023-06-14T09:49:03;23.80;60.30
44607;DHT22;30315;46.072;14.474;2023-06-14T09:51:31;23.80;60.10
44607;DHT22;30315;46.072;14.474;2023-06-14T09:54:00;23.80;59.60
44607;DHT22;30315;46.072;14.474;2023-06-14T09:56:29;23.80;59.40
44607;DHT22;30315;46.072;14.474;2023-06-14T09:58:58;23.80;59.30
44607;DHT22;30315;46.072;14.474;2023-06-14T10:01:35;23.80;59.80
44607;DHT22;30315;46.072;14.474;2023-06-14T10:04:07;23.80;60.20
44607;DHT22;30315;46.072;14.474;2023-06-14T10:06:40;23.80;60.10
44607;DHT22;30315;46.072;14.474;2023-06-14T10:09:09;23.80;60.20
44607;DHT22;30315;46.072;14.474;2023-06-14T10:11:37;23.80;60.20
44607;DHT22;30315;46.072;14.474;2023-06-14T10:14:12;23.90;59.50
44607;DHT22;30315;46.072;14.474;2023-06-14T10:16:56;23.90;59.30
44607;DHT22;30315;46.072;14.474;2023-06-14T10:22:12;24.00;59.90
44607;DHT22;30315;46.072;14.474;2023-06-14T10:24:45;24.10;59.90
44607;DHT22;30315;46.072;14.474;2023-06-14T10:27:16;24.10;59.80
44607;DHT22;30315;46.072;14.474;2023-06-14T10:32:21;24.10;59.30
44607;DHT22;30315;46.072;14.474;2023-06-14T10:34:58;24.20;59.30
44607;DHT22;30315;46.072;14.474;2023-06-14T10:37:25;24.20;59.80
44607;DHT22;30315;46.072;14.474;2023-06-14T10:39:52;24.20;59.20
44607;DHT22;30315;46.072;14.474;2023-06-14T10:42:28;24.20;58.90
44607;DHT22;30315;46.072;14.474;2023-06-14T10:44:58;24.30;58.50
44607;DHT22;30315;46.072;14.474;2023-06-14T10:47:28;24.40;58.60
44607;DHT22;30315;46.072;14.474;2023-06-14T10:50:02;24.50;58.80
44607;DHT22;30315;46.072;14.474;2023-06-14T10:52:33;24.50;57.90
44607;DHT22;30315;46.072;14.474;2023-06-14T10:55:14;24.60;57.30
44607;DHT22;30315;46.072;14.474;2023-06-14T10:57:54;24.70;57.30
44607;DHT22;30315;46.072;14.474;2023-06-14T11:00:27;24.90;56.10
44607;DHT22;30315;46.072;14.474;2023-06-14T11:05:53;25.10;55.00
44607;DHT22;30315;46.072;14.474;2023-06-14T11:11:31;25.40;55.00
44607;DHT22;30315;46.072;14.474;2023-06-14T11:14:00;25.40;54.90
44607;DHT22;30315;46.072;14.474;2023-06-14T11:16:29;25.50;54.70
44607;DHT22;30315;46.072;14.474;2023-06-14T11:18:56;25.50;54.70
44607;DHT22;30315;46.072;14.474;2023-06-14T11:21:24;25.40;53.80
44607;DHT22;30315;46.072;14.474;2023-06-14T11:23:52;25.60;53.80
44607;DHT22;30315;46.072;14.474;2023-06-14T11:26:27;25.80;54.80
44607;DHT22;30315;46.072;14.474;2023-06-14T11:28:59;25.90;53.50
44607;DHT22;30315;46.072;14.474;2023-06-14T11:31:27;25.90;52.80
44607;DHT22;30315;46.072;14.474;2023-06-14T11:33:56;26.00;52.70
44607;DHT22;30315;46.072;14.474;2023-06-14T11:36:27;26.00;52.90
44607;DHT22;30315;46.072;14.474;2023-06-14T11:39:01;26.00;53.10
44607;DHT22;30315;46.072;14.474;2023-06-14T11:44:04;26.10;53.10
44607;DHT22;30315;46.072;14.474;2023-06-14T11:46:32;26.10;53.50
44607;DHT22;30315;46.072;14.474;2023-06-14T11:49:00;26.10;53.30
44607;DHT22;30315;46.072;14.474;2023-06-14T11:51:32;26.20;52.80
44607;DHT22;30315;46.072;14.474;2023-06-14T11:53:59;26.20;53.60
44607;DHT22;30315;46.072;14.474;2023-06-14T11:56:27;26.30;52.20
44607;DHT22;30315;46.072;14.474;2023-06-14T11:58:54;26.40;52.20
44607;DHT22;30315;46.072;14.474;2023-06-14T12:01:23;26.40;52.80
44607;DHT22;30315;46.072;14.474;2023-06-14T12:03:52;26.50;53.10
44607;DHT22;30315;46.072;14.474;2023-06-14T12:06:30;26.60;53.10
44607;DHT22;30315;46.072;14.474;2023-06-14T12:09:06;26.70;52.20
44607;DHT22;30315;46.072;14.474;2023-06-14T12:11:37;26.80;52.30
44607;DHT22;30315;46.072;14.474;2023-06-14T12:14:05;26.90;51.00
44607;DHT22;30315;46.072;14.474;2023-06-14T12:16:34;27.00;50.50
44607;DHT22;30315;46.072;14.474;2023-06-14T12:19:16;27.10;50.60
44607;DHT22;30315;46.072;14.474;2023-06-14T12:21:46;27.10;49.10
44607;DHT22;30315;46.072;14.474;2023-06-14T12:24:17;27.20;50.00
44607;DHT22;30315;46.072;14.474;2023-06-14T12:26:44;27.20;49.20
44607;DHT22;30315;46.072;14.474;2023-06-14T12:29:12;27.30;49.20
44607;DHT22;30315;46.072;14.474;2023-06-14T12:31:40;27.40;48.40
44607;DHT22;30315;46.072;14.474;2023-06-14T12:34:08;27.40;49.10
44607;DHT22;30315;46.072;14.474;2023-06-14T12:36:35;27.50;49.10
44607;DHT22;30315;46.072;14.474;2023-06-14T12:39:08;27.60;49.20
44607;DHT22;30315;46.072;14.474;2023-06-14T12:41:35;27.70;48.10
44607;DHT22;30315;46.072;14.474;2023-06-14T12:44:04;27.80;48.00
44607;DHT22;30315;46.072;14.474;2023-06-14T12:46:31;27.80;48.30
44607;DHT22;30315;46.072;14.474;2023-06-14T12:48:59;27.90;48.70
44607;DHT22;30315;46.072;14.474;2023-06-14T12:51:26;28.00;49.60
44607;DHT22;30315;46.072;14.474;2023-06-14T12:53:53;28.10;49.30
44607;DHT22;30315;46.072;14.474;2023-06-14T12:56:20;28.20;49.30
44607;DHT22;30315;46.072;14.474;2023-06-14T12:58:50;28.30;49.20
44607;DHT22;30315;46.072;14.474;2023-06-14T13:01:18;28.20;49.40
44607;DHT22;30315;46.072;14.474;2023-06-14T13:03:46;28.10;49.10
44607;DHT22;30315;46.072;14.474;2023-06-14T13:06:14;28.10;49.50
44607;DHT22;30315;46.072;14.474;2023-06-14T13:08:41;28.00;49.30
44607;DHT22;30315;46.072;14.474;2023-06-14T13:11:08;27.90;49.80
44607;DHT22;30315;46.072;14.474;2023-06-14T13:13:35;27.80;49.40
44607;DHT22;30315;46.072;14.474;2023-06-14T13:16:02;27.60;48.80
44607;DHT22;30315;46.072;14.474;2023-06-14T13:18:29;27.50;48.80
44607;DHT22;30315;46.072;14.474;2023-06-14T13:20:56;27.40;49.30
44607;DHT22;30315;46.072;14.474;2023-06-14T13:23:23;27.30;49.30
44607;DHT22;30315;46.072;14.474;2023-06-14T13:25:50;27.40;49.60
44607;DHT22;30315;46.072;14.474;2023-06-14T13:28:18;27.50;49.90
44607;DHT22;30315;46.072;14.474;2023-06-14T13:30:45;27.60;50.90
44607;DHT22;30315;46.072;14.474;2023-06-14T13:33:12;27.90;50.20
44607;DHT22;30315;46.072;14.474;2023-06-14T13:35:39;28.10;49.80
44607;DHT22;30315;46.072;14.474;2023-06-14T13:38:07;28.30;49.90
44607;DHT22;30315;46.072;14.474;2023-06-14T13:40:35;28.50;49.00
44607;DHT22;30315;46.072;14.474;2023-06-14T13:43:02;28.50;48.60
44607;DHT22;30315;46.072;14.474;2023-06-14T13:45:29;28.60;48.10
44607;DHT22;30315;46.072;14.474;2023-06-14T13:47:56;28.50;46.90
44607;DHT22;30315;46.072;14.474;2023-06-14T13:50:23;28.40;47.10
44607;DHT22;30315;46.072;14.474;2023-06-14T13:52:50;28.30;47.30
44607;DHT22;30315;46.072;14.474;2023-06-14T13:55:17;28.30;46.70
44607;DHT22;30315;46.072;14.474;2023-06-14T13:57:44;28.10;46.90
44607;DHT22;30315;46.072;14.474;2023-06-14T14:00:12;28.10;47.10
44607;DHT22;30315;46.072;14.474;2023-06-14T14:02:41;28.00;47.60
44607;DHT22;30315;46.072;14.474;2023-06-14T14:05:09;28.10;47.50
44607;DHT22;30315;46.072;14.474;2023-06-14T14:07:36;28.10;47.50
44607;DHT22;30315;46.072;14.474;2023-06-14T14:10:03;28.10;47.30
44607;DHT22;30315;46.072;14.474;2023-06-14T14:12:30;28.00;46.10
44607;DHT22;30315;46.072;14.474;2023-06-14T14:14:57;28.00;46.40
44607;DHT22;30315;46.072;14.474;2023-06-14T14:17:24;28.00;46.20
44607;DHT22;30315;46.072;14.474;2023-06-14T14:19:51;28.00;46.80
44607;DHT22;30315;46.072;14.474;2023-06-14T14:22:18;28.20;47.20
44607;DHT22;30315;46.072;14.474;2023-06-14T14:24:45;28.40;47.50
44607;DHT22;30315;46.072;14.474;2023-06-14T14:27:13;28.60;47.50
44607;DHT22;30315;46.072;14.474;2023-06-14T14:29:40;28.70;47.10
44607;DHT22;30315;46.072;14.474;2023-06-14T14:32:08;29.00;47.50
44607;DHT22;30315;46.072;14.474;2023-06-14T14:34:37;29.20;46.70
44607;DHT22;30315;46.072;14.474;2023-06-14T14:37:04;29.20;45.50
44607;DHT22;30315;46.072;14.474;2023-06-14T14:39:31;29.30;45.00
44607;DHT22;30315;46.072;14.474;2023-06-14T14:41:58;29.40;45.30
44607;DHT22;30315;46.072;14.474;2023-06-14T14:44:25;29.40;44.80
44607;DHT22;30315;46.072;14.474;2023-06-14T14:46:52;29.40;44.90
44607;DHT22;30315;46.072;14.474;2023-06-14T14:49:19;29.30;45.10
44607;DHT22;30315;46.072;14.474;2023-06-14T14:51:47;29.10;45.40
44607;DHT22;30315;46.072;14.474;2023-06-14T14:54:14;29.10;45.90
44607;DHT22;30315;46.072;14.474;2023-06-14T14:56:41;28.90;45.40
44607;DHT22;30315;46.072;14.474;2023-06-14T14:59:08;28.70;45.50
44607;DHT22;30315;46.072;14.474;2023-06-14T15:01:34;28.60;45.60
44607;DHT22;30315;46.072;14.474;2023-06-14T15:04:02;28.50;46.10
44607;DHT22;30315;46.072;14.474;2023-06-14T15:06:29;28.50;46.20
44607;DHT22;30315;46.072;14.474;2023-06-14T15:08:56;28.40;46.50
44607;DHT22;30315;46.072;14.474;2023-06-14T15:11:23;28.40;45.70
44607;DHT22;30315;46.072;14.474;2023-06-14T15:13:50;28.30;46.60
44607;DHT22;30315;46.072;14.474;2023-06-14T15:16:17;28.30;47.70
44607;DHT22;30315;46.072;14.474;2023-06-14T15:18:44;28.30;46.80
44607;DHT22;30315;46.072;14.474;2023-06-14T15:21:12;28.30;46.40
44607;DHT22;30315;46.072;14.474;2023-06-14T15:23:39;28.20;45.60
44607;DHT22;30315;46.072;14.474;2023-06-14T15:26:06;28.20;46.00
44607;DHT22;30315;46.072;14.474;2023-06-14T15:28:33;28.10;45.70
44607;DHT22;30315;46.072;14.474;2023-06-14T15:31:00;28.00;44.70
44607;DHT22;30315;46.072;14.474;2023-06-14T15:33:27;28.00;44.50
44607;DHT22;30315;46.072;14.474;2023-06-14T15:35:54;27.80;44.40
44607;DHT22;30315;46.072;14.474;2023-06-14T15:38:22;27.80;44.90
44607;DHT22;30315;46.072;14.474;2023-06-14T15:40:49;27.60;45.10
44607;DHT22;30315;46.072;14.474;2023-06-14T15:43:18;27.60;45.40